sensor_id;sensor_type;location;lat;lon;timestamp;temperature;humidity
19878;DHT22;10101;52.204;9.910;2023-03-17T00:02:21;6.20;1.00
19878;DHT22;10101;52.204;9.910;2023-03-17T00:04:49;6.10;1.00
19878;DHT22;10101;52.204;9.910;2023-03-17T00:07:17;6.20;1.00
19878;DHT22;10101;52.204;9.910;2023-03-17T00:09:44;6.20;1.00
19878;DHT22;10101;52.204;9.910;2023-03-17T00:12:11;6.20;1.00
19878;DHT22;10101;52.204;9.910;2023-03-17T00:14:38;6.20;1.00
19878;DHT22;10101;52.204;9.910;2023-03-17T00:17:05;6.20;1.00
19878;DHT22;10101;52.204;9.910;2023-03-17T00:19:33;6.10;1.00
19878;DHT22;10101;52.204;9.910;2023-03-17T00:22:02;6.00;99.90
19878;DHT22;10101;52.204;9.910;2023-03-17T00:24:31;6.00;99.90
19878;DHT22;10101;52.204;9.910;2023-03-17T00:26:58;6.00;99.90
19878;DHT22;10101;52.204;9.910;2023-03-17T00:29:24;6.00;99.90
19878;DHT22;10101;52.204;9.910;2023-03-17T00:31:51;6.00;99.90
19878;DHT22;10101;52.204;9.910;2023-03-17T00:34:19;6.10;1.00
19878;DHT22;10101;52.204;9.910;2023-03-17T00:36:47;6.00;99.90
19878;DHT22;10101;52.204;9.910;2023-03-17T00:39:16;6.00;99.90
19878;DHT22;10101;52.204;9.910;2023-03-17T00:41:43;6.00;99.90
19878;DHT22;10101;52.204;9.910;2023-03-17T00:44:09;6.00;99.90
19878;DHT22;10101;52.204;9.910;2023-03-17T00:46:37;6.10;99.90
19878;DHT22;10101;52.204;9.910;2023-03-17T00:49:13;6.00;99.90
19878;DHT22;10101;52.204;9.910;2023-03-17T00:51:41;6.10;99.90
19878;DHT22;10101;52.204;9.910;2023-03-17T00:54:08;6.00;1.00
19878;DHT22;10101;52.204;9.910;2023-03-17T00:56:37;5.80;99.90
19878;DHT22;10101;52.204;9.910;2023-03-17T00:59:14;5.80;99.90
19878;DHT22;10101;52.204;9.910;2023-03-17T01:01:42;5.80;99.90
19878;DHT22;10101;52.204;9.910;2023-03-17T01:04:09;5.90;99.90
19878;DHT22;10101;52.204;9.910;2023-03-17T01:06:36;5.90;99.90
19878;DHT22;10101;52.204;9.910;2023-03-17T01:09:03;5.90;99.90
19878;DHT22;10101;52.204;9.910;2023-03-17T01:11:30;5.80;99.90
19878;DHT22;10101;52.204;9.910;2023-03-17T01:13:59;5.90;99.90
19878;DHT22;10101;52.204;9.910;2023-03-17T01:16:25;5.90;99.90
19878;DHT22;10101;52.204;9.910;2023-03-17T01:18:53;5.80;1.00
19878;DHT22;10101;52.204;9.910;2023-03-17T01:21:20;5.70;99.90
19878;DHT22;10101;52.204;9.910;2023-03-17T01:23:46;5.70;99.90
19878;DHT22;10101;52.204;9.910;2023-03-17T01:26:13;5.60;99.90
19878;DHT22;10101;52.204;9.910;2023-03-17T01:28:40;5.60;99.90
19878;DHT22;10101;52.204;9.910;2023-03-17T01:31:09;5.80;99.90
19878;DHT22;10101;52.204;9.910;2023-03-17T01:33:37;5.70;99.90
19878;DHT22;10101;52.204;9.910;2023-03-17T01:36:04;5.60;99.90
19878;DHT22;10101;52.204;9.910;2023-03-17T01:38:31;5.60;99.90
19878;DHT22;10101;52.204;9.910;2023-03-17T01:40:57;5.60;99.90
19878;DHT22;10101;52.204;9.910;2023-03-17T01:43:27;5.70;99.90
19878;DHT22;10101;52.204;9.910;2023-03-17T01:46:27;6.00;99.90
19878;DHT22;10101;52.204;9.910;2023-03-17T01:49:15;6.20;1.00
19878;DHT22;10101;52.204;9.910;2023-03-17T01:51:51;6.10;1.00
19878;DHT22;10101;52.204;9.910;2023-03-17T01:54:23;6.10;1.00
19878;DHT22;10101;52.204;9.910;2023-03-17T01:56:53;6.20;1.00
19878;DHT22;10101;52.204;9.910;2023-03-17T01:59:26;6.10;1.00
19878;DHT22;10101;52.204;9.910;2023-03-17T02:01:58;6.00;1.00
19878;DHT22;10101;52.204;9.910;2023-03-17T02:04:27;5.90;1.00
19878;DHT22;10101;52.204;9.910;2023-03-17T02:06:55;6.00;1.00
19878;DHT22;10101;52.204;9.910;2023-03-17T02:09:23;6.00;1.00
19878;DHT22;10101;52.204;9.910;2023-03-17T02:11:50;6.00;1.00
19878;DHT22;10101;52.204;9.910;2023-03-17T02:14:16;6.00;1.00
19878;DHT22;10101;52.204;9.910;2023-03-17T02:16:44;5.90;1.00
19878;DHT22;10101;52.204;9.910;2023-03-17T02:19:12;5.90;99.90
19878;DHT22;10101;52.204;9.910;2023-03-17T02:21:42;5.80;1.00
19878;DHT22;10101;52.204;9.910;2023-03-17T02:24:15;5.80;99.90
19878;DHT22;10101;52.204;9.910;2023-03-17T02:26:46;5.90;99.90
19878;DHT22;10101;52.204;9.910;2023-03-17T02:29:15;5.90;99.90
19878;DHT22;10101;52.204;9.910;2023-03-17T02:31:43;5.80;99.90
19878;DHT22;10101;52.204;9.910;2023-03-17T02:34:10;5.90;1.00
19878;DHT22;10101;52.204;9.910;2023-03-17T02:36:37;5.90;1.00
19878;DHT22;10101;52.204;9.910;2023-03-17T02:39:06;5.80;99.90
19878;DHT22;10101;52.204;9.910;2023-03-17T02:41:33;5.90;99.90
19878;DHT22;10101;52.204;9.910;2023-03-17T02:44:01;5.80;99.90
19878;DHT22;10101;52.204;9.910;2023-03-17T02:46:27;5.80;99.90
19878;DHT22;10101;52.204;9.910;2023-03-17T02:48:54;5.70;99.90
19878;DHT22;10101;52.204;9.910;2023-03-17T02:51:22;5.70;99.90
19878;DHT22;10101;52.204;9.910;2023-03-17T02:53:49;5.80;99.90
19878;DHT22;10101;52.204;9.910;2023-03-17T02:56:17;5.70;99.90
19878;DHT22;10101;52.204;9.910;2023-03-17T02:58:44;5.70;1.00
19878;DHT22;10101;52.204;9.910;2023-03-17T03:01:10;5.70;99.90
19878;DHT22;10101;52.204;9.910;2023-03-17T03:03:37;5.80;99.90
19878;DHT22;10101;52.204;9.910;2023-03-17T03:06:04;5.80;99.90
19878;DHT22;10101;52.204;9.910;2023-03-17T03:08:32;5.90;1.00
19878;DHT22;10101;52.204;9.910;2023-03-17T03:10:58;5.90;1.00
19878;DHT22;10101;52.204;9.910;2023-03-17T03:13:28;5.90;1.00
19878;DHT22;10101;52.204;9.910;2023-03-17T03:15:55;6.00;99.90
19878;DHT22;10101;52.204;9.910;2023-03-17T03:18:22;6.10;1.00
19878;DHT22;10101;52.204;9.910;2023-03-17T03:20:49;6.10;1.00
19878;DHT22;10101;52.204;9.910;2023-03-17T03:23:15;6.30;1.00
19878;DHT22;10101;52.204;9.910;2023-03-17T03:25:45;6.20;1.00
19878;DHT22;10101;52.204;9.910;2023-03-17T03:28:11;6.20;1.00
19878;DHT22;10101;52.204;9.910;2023-03-17T03:30:40;6.10;1.00
19878;DHT22;10101;52.204;9.910;2023-03-17T03:33:09;6.00;1.00
19878;DHT22;10101;52.204;9.910;2023-03-17T03:35:37;6.00;99.90
19878;DHT22;10101;52.204;9.910;2023-03-17T03:38:04;6.00;1.00
19878;DHT22;10101;52.204;9.910;2023-03-17T03:40:31;6.10;1.00
19878;DHT22;10101;52.204;9.910;2023-03-17T03:42:58;6.10;1.00
19878;DHT22;10101;52.204;9.910;2023-03-17T03:45:25;6.20;1.00
19878;DHT22;10101;52.204;9.910;2023-03-17T03:47:53;6.20;1.00
19878;DHT22;10101;52.204;9.910;2023-03-17T03:50:20;6.10;1.00
19878;DHT22;10101;52.204;9.910;2023-03-17T03:52:47;6.10;1.00
19878;DHT22;10101;52.204;9.910;2023-03-17T03:55:15;6.00;1.00
19878;DHT22;10101;52.204;9.910;2023-03-17T03:57:42;6.10;1.00
19878;DHT22;10101;52.204;9.910;2023-03-17T04:00:10;6.10;1.00
19878;DHT22;10101;52.204;9.910;2023-03-17T04:02:37;6.00;1.00
19878;DHT22;10101;52.204;9.910;2023-03-17T04:05:06;5.90;1.00
19878;DHT22;10101;52.204;9.910;2023-03-17T04:07:33;5.80;1.00
19878;DHT22;10101;52.204;9.910;2023-03-17T04:10:00;5.70;1.00
19878;DHT22;10101;52.204;9.910;2023-03-17T04:12:27;5.60;1.00
19878;DHT22;10101;52.204;9.910;2023-03-17T04:14:54;5.50;1.00
19878;DHT22;10101;52.204;9.910;2023-03-17T04:17:20;5.40;1.00
19878;DHT22;10101;52.204;9.910;2023-03-17T04:19:47;5.40;99.90
19878;DHT22;10101;52.204;9.910;2023-03-17T04:22:15;5.50;99.90
19878;DHT22;10101;52.204;9.910;2023-03-17T04:24:42;5.40;99.90
19878;DHT22;10101;52.204;9.910;2023-03-17T04:27:09;5.50;99.90
19878;DHT22;10101;52.204;9.910;2023-03-17T04:29:36;5.60;1.00
19878;DHT22;10101;52.204;9.910;2023-03-17T04:32:03;5.50;99.90
19878;DHT22;10101;52.204;9.910;2023-03-17T04:34:31;5.50;1.00
19878;DHT22;10101;52.204;9.910;2023-03-17T04:36:57;5.60;1.00
19878;DHT22;10101;52.204;9.910;2023-03-17T04:39:25;5.40;1.00
19878;DHT22;10101;52.204;9.910;2023-03-17T04:41:52;5.20;99.90
19878;DHT22;10101;52.204;9.910;2023-03-17T04:44:19;5.10;99.90
19878;DHT22;10101;52.204;9.910;2023-03-17T04:46:46;5.00;99.90
19878;DHT22;10101;52.204;9.910;2023-03-17T04:49:12;4.90;99.90
19878;DHT22;10101;52.204;9.910;2023-03-17T04:51:39;4.80;99.90
19878;DHT22;10101;52.204;9.910;2023-03-17T04:54:06;4.90;99.90
19878;DHT22;10101;52.204;9.910;2023-03-17T04:56:35;4.90;99.90
19878;DHT22;10101;52.204;9.910;2023-03-17T04:59:02;4.80;99.90
19878;DHT22;10101;52.204;9.910;2023-03-17T05:01:29;4.70;99.90
19878;DHT22;10101;52.204;9.910;2023-03-17T05:03:56;4.70;99.90
19878;DHT22;10101;52.204;9.910;2023-03-17T05:06:22;4.60;99.90
19878;DHT22;10101;52.204;9.910;2023-03-17T05:08:49;4.50;99.90
19878;DHT22;10101;52.204;9.910;2023-03-17T05:11:16;4.40;99.90
19878;DHT22;10101;52.204;9.910;2023-03-17T05:13:44;4.30;65.40
19878;DHT22;10101;52.204;9.910;2023-03-17T05:16:11;4.20;83.50
19878;DHT22;10101;52.204;9.910;2023-03-17T05:18:38;4.10;31.50
19878;DHT22;10101;52.204;9.910;2023-03-17T05:21:06;4.60;99.90
19878;DHT22;10101;52.204;9.910;2023-03-17T05:23:33;4.60;99.90
19878;DHT22;10101;52.204;9.910;2023-03-17T05:26:00;4.50;99.90
19878;DHT22;10101;52.204;9.910;2023-03-17T05:28:27;4.60;99.90
19878;DHT22;10101;52.204;9.910;2023-03-17T05:30:55;4.70;99.90
19878;DHT22;10101;52.204;9.910;2023-03-17T05:33:22;4.70;99.90
19878;DHT22;10101;52.204;9.910;2023-03-17T05:35:49;4.80;99.90
19878;DHT22;10101;52.204;9.910;2023-03-17T05:38:16;4.60;99.90
19878;DHT22;10101;52.204;9.910;2023-03-17T05:40:43;4.60;99.90
19878;DHT22;10101;52.204;9.910;2023-03-17T05:43:11;4.60;99.90
19878;DHT22;10101;52.204;9.910;2023-03-17T05:45:38;4.40;99.90
19878;DHT22;10101;52.204;9.910;2023-03-17T05:48:06;4.40;99.90
19878;DHT22;10101;52.204;9.910;2023-03-17T05:50:33;4.20;99.90
19878;DHT22;10101;52.204;9.910;2023-03-17T05:53:00;4.10;99.90
19878;DHT22;10101;52.204;9.910;2023-03-17T05:55:30;4.10;99.90
19878;DHT22;10101;52.204;9.910;2023-03-17T05:57:57;4.10;99.90
19878;DHT22;10101;52.204;9.910;2023-03-17T06:00:25;4.10;99.90
19878;DHT22;10101;52.204;9.910;2023-03-17T06:02:53;4.20;99.90
19878;DHT22;10101;52.204;9.910;2023-03-17T06:05:21;4.20;99.90
19878;DHT22;10101;52.204;9.910;2023-03-17T06:07:48;4.20;99.90
19878;DHT22;10101;52.204;9.910;2023-03-17T06:10:15;4.30;99.90
19878;DHT22;10101;52.204;9.910;2023-03-17T06:12:42;4.20;99.90
19878;DHT22;10101;52.204;9.910;2023-03-17T06:15:09;4.10;95.90
19878;DHT22;10101;52.204;9.910;2023-03-17T06:17:36;4.10;99.90
19878;DHT22;10101;52.204;9.910;2023-03-17T06:20:03;4.10;99.30
19878;DHT22;10101;52.204;9.910;2023-03-17T06:22:32;4.10;99.90
19878;DHT22;10101;52.204;9.910;2023-03-17T06:24:58;4.10;99.90
19878;DHT22;10101;52.204;9.910;2023-03-17T06:27:25;4.30;99.90
19878;DHT22;10101;52.204;9.910;2023-03-17T06:29:52;4.30;99.90
19878;DHT22;10101;52.204;9.910;2023-03-17T06:32:19;4.50;99.90
19878;DHT22;10101;52.204;9.910;2023-03-17T06:34:46;4.70;99.90
19878;DHT22;10101;52.204;9.910;2023-03-17T06:37:13;4.90;99.90
19878;DHT22;10101;52.204;9.910;2023-03-17T06:39:42;5.10;99.90
19878;DHT22;10101;52.204;9.910;2023-03-17T06:42:09;5.20;1.00
19878;DHT22;10101;52.204;9.910;2023-03-17T06:44:36;5.30;1.00
19878;DHT22;10101;52.204;9.910;2023-03-17T06:47:03;5.50;1.00
19878;DHT22;10101;52.204;9.910;2023-03-17T06:49:30;5.70;1.00
19878;DHT22;10101;52.204;9.910;2023-03-17T06:51:57;5.90;1.00
19878;DHT22;10101;52.204;9.910;2023-03-17T06:54:24;6.00;1.00
19878;DHT22;10101;52.204;9.910;2023-03-17T06:56:53;6.10;1.00
19878;DHT22;10101;52.204;9.910;2023-03-17T06:59:21;6.10;1.00
19878;DHT22;10101;52.204;9.910;2023-03-17T07:01:48;6.20;1.00
19878;DHT22;10101;52.204;9.910;2023-03-17T07:04:16;6.30;1.00
19878;DHT22;10101;52.204;9.910;2023-03-17T07:06:43;6.30;1.00
19878;DHT22;10101;52.204;9.910;2023-03-17T07:09:10;6.50;1.00
19878;DHT22;10101;52.204;9.910;2023-03-17T07:11:37;6.70;1.00
19878;DHT22;10101;52.204;9.910;2023-03-17T07:14:06;6.90;1.00
19878;DHT22;10101;52.204;9.910;2023-03-17T07:16:33;7.10;1.00
19878;DHT22;10101;52.204;9.910;2023-03-17T07:19:00;7.20;1.00
19878;DHT22;10101;52.204;9.910;2023-03-17T07:21:27;7.30;25.70
19878;DHT22;10101;52.204;9.910;2023-03-17T07:23:54;7.40;41.60
19878;DHT22;10101;52.204;9.910;2023-03-17T07:26:20;7.40;99.90
19878;DHT22;10101;52.204;9.910;2023-03-17T07:28:47;7.50;42.90
19878;DHT22;10101;52.204;9.910;2023-03-17T07:31:16;7.80;50.00
19878;DHT22;10101;52.204;9.910;2023-03-17T07:33:42;8.00;3.40
19878;DHT22;10101;52.204;9.910;2023-03-17T07:36:09;8.00;90.10
19878;DHT22;10101;52.204;9.910;2023-03-17T07:38:37;8.10;99.90
19878;DHT22;10101;52.204;9.910;2023-03-17T07:41:04;8.30;96.40
19878;DHT22;10101;52.204;9.910;2023-03-17T07:43:34;8.40;99.90
19878;DHT22;10101;52.204;9.910;2023-03-17T07:46:02;8.30;99.90
19878;DHT22;10101;52.204;9.910;2023-03-17T07:48:30;8.40;99.90
19878;DHT22;10101;52.204;9.910;2023-03-17T07:50:58;8.50;99.90
19878;DHT22;10101;52.204;9.910;2023-03-17T07:53:24;8.50;99.90
19878;DHT22;10101;52.204;9.910;2023-03-17T07:55:51;8.50;99.90
19878;DHT22;10101;52.204;9.910;2023-03-17T07:58:18;8.60;99.90
19878;DHT22;10101;52.204;9.910;2023-03-17T08:00:46;8.70;99.90
19878;DHT22;10101;52.204;9.910;2023-03-17T08:03:13;8.80;84.00
19878;DHT22;10101;52.204;9.910;2023-03-17T08:05:42;9.00;94.40
19878;DHT22;10101;52.204;9.910;2023-03-17T08:08:10;9.10;91.00
19878;DHT22;10101;52.204;9.910;2023-03-17T08:10:37;9.20;78.40
19878;DHT22;10101;52.204;9.910;2023-03-17T08:13:04;9.30;99.90
19878;DHT22;10101;52.204;9.910;2023-03-17T08:15:30;9.30;99.90
19878;DHT22;10101;52.204;9.910;2023-03-17T08:17:57;9.30;99.90
19878;DHT22;10101;52.204;9.910;2023-03-17T08:20:25;9.60;82.20
19878;DHT22;10101;52.204;9.910;2023-03-17T08:22:53;9.80;99.90
19878;DHT22;10101;52.204;9.910;2023-03-17T08:25:21;9.70;99.90
19878;DHT22;10101;52.204;9.910;2023-03-17T08:27:49;9.80;99.90
19878;DHT22;10101;52.204;9.910;2023-03-17T08:30:16;9.90;99.90
19878;DHT22;10101;52.204;9.910;2023-03-17T08:32:43;10.00;99.90
19878;DHT22;10101;52.204;9.910;2023-03-17T08:35:10;10.00;99.90
19878;DHT22;10101;52.204;9.910;2023-03-17T08:37:40;9.90;99.90
19878;DHT22;10101;52.204;9.910;2023-03-17T08:40:10;10.10;99.90
19878;DHT22;10101;52.204;9.910;2023-03-17T08:42:37;10.10;99.90
19878;DHT22;10101;52.204;9.910;2023-03-17T08:45:05;10.50;99.90
19878;DHT22;10101;52.204;9.910;2023-03-17T08:47:32;10.40;99.90
19878;DHT22;10101;52.204;9.910;2023-03-17T08:49:59;10.60;99.90
19878;DHT22;10101;52.204;9.910;2023-03-17T08:52:26;10.50;99.90
19878;DHT22;10101;52.204;9.910;2023-03-17T08:54:53;10.50;99.90
19878;DHT22;10101;52.204;9.910;2023-03-17T08:57:21;10.80;99.90
19878;DHT22;10101;52.204;9.910;2023-03-17T08:59:49;11.30;99.90
19878;DHT22;10101;52.204;9.910;2023-03-17T09:02:17;11.30;99.90
19878;DHT22;10101;52.204;9.910;2023-03-17T09:04:43;11.20;99.90
19878;DHT22;10101;52.204;9.910;2023-03-17T09:07:11;11.20;99.90
19878;DHT22;10101;52.204;9.910;2023-03-17T09:09:38;11.40;99.90
19878;DHT22;10101;52.204;9.910;2023-03-17T09:12:06;11.60;99.90
19878;DHT22;10101;52.204;9.910;2023-03-17T09:14:35;11.70;99.90
19878;DHT22;10101;52.204;9.910;2023-03-17T09:17:02;11.60;99.90
19878;DHT22;10101;52.204;9.910;2023-03-17T09:19:28;11.70;99.90
19878;DHT22;10101;52.204;9.910;2023-03-17T09:21:55;11.90;99.90
19878;DHT22;10101;52.204;9.910;2023-03-17T09:24:22;11.90;99.90
19878;DHT22;10101;52.204;9.910;2023-03-17T09:26:49;11.80;99.90
19878;DHT22;10101;52.204;9.910;2023-03-17T09:29:15;11.80;99.90
19878;DHT22;10101;52.204;9.910;2023-03-17T09:31:44;11.70;99.90
19878;DHT22;10101;52.204;9.910;2023-03-17T09:34:11;11.90;99.90
19878;DHT22;10101;52.204;9.910;2023-03-17T09:36:38;12.00;99.90
19878;DHT22;10101;52.204;9.910;2023-03-17T09:39:05;12.00;99.90
19878;DHT22;10101;52.204;9.910;2023-03-17T09:41:51;11.90;99.90
19878;DHT22;10101;52.204;9.910;2023-03-17T09:44:32;12.00;99.90
19878;DHT22;10101;52.204;9.910;2023-03-17T09:47:13;12.10;99.90
19878;DHT22;10101;52.204;9.910;2023-03-17T09:49:45;12.20;99.90
19878;DHT22;10101;52.204;9.910;2023-03-17T09:52:14;12.00;99.90
19878;DHT22;10101;52.204;9.910;2023-03-17T09:54:44;12.00;99.90
19878;DHT22;10101;52.204;9.910;2023-03-17T09:57:18;12.20;99.90
19878;DHT22;10101;52.204;9.910;2023-03-17T09:59:49;12.30;99.90
19878;DHT22;10101;52.204;9.910;2023-03-17T10:02:21;12.50;99.90
19878;DHT22;10101;52.204;9.910;2023-03-17T10:04:49;12.70;99.90
19878;DHT22;10101;52.204;9.910;2023-03-17T10:07:19;12.80;99.90
19878;DHT22;10101;52.204;9.910;2023-03-17T10:09:54;12.90;99.90
19878;DHT22;10101;52.204;9.910;2023-03-17T10:12:29;12.90;99.90
19878;DHT22;10101;52.204;9.910;2023-03-17T10:15:01;12.90;99.90
19878;DHT22;10101;52.204;9.910;2023-03-17T10:17:32;13.20;99.90
19878;DHT22;10101;52.204;9.910;2023-03-17T10:20:03;12.90;99.90
19878;DHT22;10101;52.204;9.910;2023-03-17T10:22:36;13.10;99.90
19878;DHT22;10101;52.204;9.910;2023-03-17T10:25:13;13.20;99.90
19878;DHT22;10101;52.204;9.910;2023-03-17T10:27:40;13.40;99.90
19878;DHT22;10101;52.204;9.910;2023-03-17T10:30:14;13.40;99.90
19878;DHT22;10101;52.204;9.910;2023-03-17T10:32:43;13.50;99.90
19878;DHT22;10101;52.204;9.910;2023-03-17T10:35:11;13.50;99.90
19878;DHT22;10101;52.204;9.910;2023-03-17T10:37:39;13.60;99.90
19878;DHT22;10101;52.204;9.910;2023-03-17T10:40:18;13.40;99.90
19878;DHT22;10101;52.204;9.910;2023-03-17T10:42:47;13.40;99.90
19878;DHT22;10101;52.204;9.910;2023-03-17T10:45:17;13.30;99.90
19878;DHT22;10101;52.204;9.910;2023-03-17T10:47:50;13.40;99.90
19878;DHT22;10101;52.204;9.910;2023-03-17T10:50:21;13.60;99.90
19878;DHT22;10101;52.204;9.910;2023-03-17T10:52:52;13.40;99.90
19878;DHT22;10101;52.204;9.910;2023-03-17T10:55:21;13.30;99.90
19878;DHT22;10101;52.204;9.910;2023-03-17T10:57:51;13.40;99.90
19878;DHT22;10101;52.204;9.910;2023-03-17T11:00:20;13.20;99.90
19878;DHT22;10101;52.204;9.910;2023-03-17T11:02:53;13.20;99.90
19878;DHT22;10101;52.204;9.910;2023-03-17T11:05:22;13.40;99.90
19878;DHT22;10101;52.204;9.910;2023-03-17T11:07:56;13.60;99.90
19878;DHT22;10101;52.204;9.910;2023-03-17T11:10:25;13.50;99.90
19878;DHT22;10101;52.204;9.910;2023-03-17T11:12:56;13.50;99.90
19878;DHT22;10101;52.204;9.910;2023-03-17T11:15:27;13.60;99.90
19878;DHT22;10101;52.204;9.910;2023-03-17T11:17:58;13.60;99.90
19878;DHT22;10101;52.204;9.910;2023-03-17T11:20:37;13.80;99.90
19878;DHT22;10101;52.204;9.910;2023-03-17T11:23:13;14.00;99.90
19878;DHT22;10101;52.204;9.910;2023-03-17T11:25:43;14.10;99.90
19878;DHT22;10101;52.204;9.910;2023-03-17T11:28:17;14.00;99.90
19878;DHT22;10101;52.204;9.910;2023-03-17T11:30:53;14.20;99.90
19878;DHT22;10101;52.204;9.910;2023-03-17T11:33:32;14.40;99.90
19878;DHT22;10101;52.204;9.910;2023-03-17T11:36:07;14.60;99.90
19878;DHT22;10101;52.204;9.910;2023-03-17T11:38:42;14.70;99.90
19878;DHT22;10101;52.204;9.910;2023-03-17T11:41:34;14.70;99.90
19878;DHT22;10101;52.204;9.910;2023-03-17T11:47:10;14.70;99.90
19878;DHT22;10101;52.204;9.910;2023-03-17T11:49:45;14.80;99.90
19878;DHT22;10101;52.204;9.910;2023-03-17T11:52:22;14.70;99.90
19878;DHT22;10101;52.204;9.910;2023-03-17T11:54:56;14.90;99.90
19878;DHT22;10101;52.204;9.910;2023-03-17T11:57:28;14.90;99.90
19878;DHT22;10101;52.204;9.910;2023-03-17T11:59:59;15.20;99.90
19878;DHT22;10101;52.204;9.910;2023-03-17T12:02:31;15.20;99.90
19878;DHT22;10101;52.204;9.910;2023-03-17T12:05:05;15.30;99.90
19878;DHT22;10101;52.204;9.910;2023-03-17T12:07:35;15.40;99.90
19878;DHT22;10101;52.204;9.910;2023-03-17T12:10:12;15.50;99.90
19878;DHT22;10101;52.204;9.910;2023-03-17T12:12:46;15.40;99.90
19878;DHT22;10101;52.204;9.910;2023-03-17T12:15:19;15.60;99.90
19878;DHT22;10101;52.204;9.910;2023-03-17T12:17:52;15.70;99.90
19878;DHT22;10101;52.204;9.910;2023-03-17T12:20:29;15.70;99.90
19878;DHT22;10101;52.204;9.910;2023-03-17T12:23:01;15.80;99.90
19878;DHT22;10101;52.204;9.910;2023-03-17T12:25:31;15.90;99.90
19878;DHT22;10101;52.204;9.910;2023-03-17T12:28:03;16.00;99.90
19878;DHT22;10101;52.204;9.910;2023-03-17T12:30:40;16.00;97.70
19878;DHT22;10101;52.204;9.910;2023-03-17T12:33:16;16.20;99.40
19878;DHT22;10101;52.204;9.910;2023-03-17T12:35:46;16.00;47.70
19878;DHT22;10101;52.204;9.910;2023-03-17T12:38:17;15.90;52.50
19878;DHT22;10101;52.204;9.910;2023-03-17T12:41:02;16.00;39.80
19878;DHT22;10101;52.204;9.910;2023-03-17T12:43:39;16.20;10.70
19878;DHT22;10101;52.204;9.910;2023-03-17T12:46:27;16.20;32.60
19878;DHT22;10101;52.204;9.910;2023-03-17T12:49:23;16.50;21.90
19878;DHT22;10101;52.204;9.910;2023-03-17T12:52:03;16.60;12.70
19878;DHT22;10101;52.204;9.910;2023-03-17T12:54:33;16.60;1.00
19878;DHT22;10101;52.204;9.910;2023-03-17T12:57:02;16.50;1.00
19878;DHT22;10101;52.204;9.910;2023-03-17T12:59:30;16.50;1.00
19878;DHT22;10101;52.204;9.910;2023-03-17T13:02:21;16.60;1.00
19878;DHT22;10101;52.204;9.910;2023-03-17T13:04:50;16.70;1.00
19878;DHT22;10101;52.204;9.910;2023-03-17T13:07:25;16.80;1.00
19878;DHT22;10101;52.204;9.910;2023-03-17T13:10:12;16.70;1.00
19878;DHT22;10101;52.204;9.910;2023-03-17T13:13:04;16.80;1.00
19878;DHT22;10101;52.204;9.910;2023-03-17T13:15:58;16.90;1.00
19878;DHT22;10101;52.204;9.910;2023-03-17T13:18:49;16.80;1.00
19878;DHT22;10101;52.204;9.910;2023-03-17T13:21:18;16.90;1.00
19878;DHT22;10101;52.204;9.910;2023-03-17T13:23:52;16.80;1.00
19878;DHT22;10101;52.204;9.910;2023-03-17T13:26:20;17.00;1.00
19878;DHT22;10101;52.204;9.910;2023-03-17T13:28:49;16.90;1.00
19878;DHT22;10101;52.204;9.910;2023-03-17T13:31:32;16.70;1.00
19878;DHT22;10101;52.204;9.910;2023-03-17T13:34:12;16.90;1.00
19878;DHT22;10101;52.204;9.910;2023-03-17T13:36:45;16.60;1.00
19878;DHT22;10101;52.204;9.910;2023-03-17T13:39:27;16.40;1.00
19878;DHT22;10101;52.204;9.910;2023-03-17T13:42:11;16.40;1.00
19878;DHT22;10101;52.204;9.910;2023-03-17T13:45:07;16.40;1.00
19878;DHT22;10101;52.204;9.910;2023-03-17T13:47:37;16.40;1.00
19878;DHT22;10101;52.204;9.910;2023-03-17T13:50:10;16.60;1.00
19878;DHT22;10101;52.204;9.910;2023-03-17T13:52:40;16.60;1.00
19878;DHT22;10101;52.204;9.910;2023-03-17T13:55:30;16.40;1.00
19878;DHT22;10101;52.204;9.910;2023-03-17T13:58:15;16.40;1.00
19878;DHT22;10101;52.204;9.910;2023-03-17T14:00:44;16.20;1.00
19878;DHT22;10101;52.204;9.910;2023-03-17T14:03:15;16.20;1.00
19878;DHT22;10101;52.204;9.910;2023-03-17T14:05:47;16.20;1.00
19878;DHT22;10101;52.204;9.910;2023-03-17T14:08:16;16.10;1.00
19878;DHT22;10101;52.204;9.910;2023-03-17T14:10:53;15.80;1.00
19878;DHT22;10101;52.204;9.910;2023-03-17T14:13:23;16.20;1.00
19878;DHT22;10101;52.204;9.910;2023-03-17T14:15:54;16.20;1.00
19878;DHT22;10101;52.204;9.910;2023-03-17T14:18:28;16.10;1.00
19878;DHT22;10101;52.204;9.910;2023-03-17T14:20:57;16.00;1.00
19878;DHT22;10101;52.204;9.910;2023-03-17T14:23:25;16.10;1.00
19878;DHT22;10101;52.204;9.910;2023-03-17T14:25:55;16.10;1.00
19878;DHT22;10101;52.204;9.910;2023-03-17T14:28:25;16.00;1.00
19878;DHT22;10101;52.204;9.910;2023-03-17T14:30:55;16.00;1.00
19878;DHT22;10101;52.204;9.910;2023-03-17T14:33:23;16.00;1.00
19878;DHT22;10101;52.204;9.910;2023-03-17T14:35:54;16.10;1.00
19878;DHT22;10101;52.204;9.910;2023-03-17T14:38:23;16.00;1.00
19878;DHT22;10101;52.204;9.910;2023-03-17T14:41:00;16.00;1.00
19878;DHT22;10101;52.204;9.910;2023-03-17T14:43:27;15.90;1.00
19878;DHT22;10101;52.204;9.910;2023-03-17T14:45:59;15.90;1.00
19878;DHT22;10101;52.204;9.910;2023-03-17T14:48:30;15.80;1.00
19878;DHT22;10101;52.204;9.910;2023-03-17T14:51:00;15.80;1.00
19878;DHT22;10101;52.204;9.910;2023-03-17T14:53:30;15.70;1.00
19878;DHT22;10101;52.204;9.910;2023-03-17T14:56:00;15.60;1.00
19878;DHT22;10101;52.204;9.910;2023-03-17T14:58:30;15.70;1.00
19878;DHT22;10101;52.204;9.910;2023-03-17T15:01:02;15.40;1.00
19878;DHT22;10101;52.204;9.910;2023-03-17T15:03:31;15.60;1.00
19878;DHT22;10101;52.204;9.910;2023-03-17T15:06:16;15.50;1.00
19878;DHT22;10101;52.204;9.910;2023-03-17T15:08:46;15.60;1.00
19878;DHT22;10101;52.204;9.910;2023-03-17T15:11:23;15.50;1.00
19878;DHT22;10101;52.204;9.910;2023-03-17T15:13:54;15.50;1.00
19878;DHT22;10101;52.204;9.910;2023-03-17T15:16:23;15.50;1.00
19878;DHT22;10101;52.204;9.910;2023-03-17T15:19:02;15.50;1.00
19878;DHT22;10101;52.204;9.910;2023-03-17T15:21:33;15.50;1.00
19878;DHT22;10101;52.204;9.910;2023-03-17T15:24:05;15.70;1.00
19878;DHT22;10101;52.204;9.910;2023-03-17T15:26:46;15.60;1.00
19878;DHT22;10101;52.204;9.910;2023-03-17T15:29:12;15.60;1.00
19878;DHT22;10101;52.204;9.910;2023-03-17T15:31:39;15.50;1.00
19878;DHT22;10101;52.204;9.910;2023-03-17T15:34:08;15.30;1.00
19878;DHT22;10101;52.204;9.910;2023-03-17T15:36:35;15.20;1.00
19878;DHT22;10101;52.204;9.910;2023-03-17T15:39:02;15.20;1.00
19878;DHT22;10101;52.204;9.910;2023-03-17T15:41:29;15.20;1.00
19878;DHT22;10101;52.204;9.910;2023-03-17T15:43:57;15.10;1.00
19878;DHT22;10101;52.204;9.910;2023-03-17T15:46:26;15.00;1.00
19878;DHT22;10101;52.204;9.910;2023-03-17T15:48:55;15.00;1.00
19878;DHT22;10101;52.204;9.910;2023-03-17T15:51:22;15.00;1.00
19878;DHT22;10101;52.204;9.910;2023-03-17T15:53:48;14.90;1.00
19878;DHT22;10101;52.204;9.910;2023-03-17T15:56:17;14.90;1.00
19878;DHT22;10101;52.204;9.910;2023-03-17T15:58:45;14.70;1.00
19878;DHT22;10101;52.204;9.910;2023-03-17T16:01:15;14.70;1.00
19878;DHT22;10101;52.204;9.910;2023-03-17T16:03:42;14.70;1.00
19878;DHT22;10101;52.204;9.910;2023-03-17T16:06:15;14.50;1.00